Time;durP1;ratioP1;P1;durP2;ratioP2;P2;SDS_P1;SDS_P2;PMS_P1;PMS_P2;Temp;Humidity;BMP_temperature;BMP_pressure;BME280_temperature;BME280_humidity;BME280_pressure;Samples;Min_cycle;Max_cycle;Signal;HPM_P1;HPM_P2
2023/10/31 00:00:53;;;;;;;16.00;6.80;;;8.70;99.90;;;;;;5055464;28;20037;-63
2023/10/31 00:03:20;;;;;;;13.05;4.07;;;8.70;99.90;;;;;;5051842;28;20053;-64
2023/10/31 00:05:47;;;;;;;12.18;4.65;;;8.70;99.90;;;;;;5054814;28;20470;-62
2023/10/31 00:08:14;;;;;;;15.25;5.03;;;8.70;99.90;;;;;;5053575;28;20076;-64
2023/10/31 00:10:44;;;;;;;11.52;4.05;;;8.60;99.90;;;;;;5058609;28;20040;-61
2023/10/31 00:13:11;;;;;;;8.45;4.07;;;8.70;99.90;;;;;;5054913;28;20056;-61
2023/10/31 00:15:38;;;;;;;10.70;4.72;;;8.70;99.90;;;;;;5055951;28;20139;-64
2023/10/31 00:18:05;;;;;;;8.55;4.15;;;8.70;99.90;;;;;;5053124;28;20045;-61
2023/10/31 00:20:32;;;;;;;14.27;4.32;;;8.70;99.90;;;;;;5058919;28;20051;-65
2023/10/31 00:22:59;;;;;;;14.07;4.65;;;8.70;99.90;;;;;;5053308;28;20083;-63
2023/10/31 00:25:26;;;;;;;15.73;6.38;;;8.70;99.90;;;;;;5056594;28;20049;-61
2023/10/31 00:27:53;;;;;;;11.77;3.85;;;8.60;99.90;;;;;;5051124;28;20044;-62
2023/10/31 00:30:21;;;;;;;13.07;5.07;;;8.60;99.90;;;;;;5035098;28;20451;-64
2023/10/31 00:32:48;;;;;;;13.13;4.30;;;8.70;99.90;;;;;;5058112;28;20123;-61
2023/10/31 00:35:15;;;;;;;8.38;4.70;;;8.60;99.90;;;;;;5034865;28;20115;-63
2023/10/31 00:37:42;;;;;;;15.73;5.43;;;8.60;99.90;;;;;;5056795;28;20065;-64
2023/10/31 00:40:12;;;;;;;12.65;5.20;;;8.60;99.90;;;;;;5054359;28;20041;-62
2023/10/31 00:42:41;;;;;;;;;;;8.60;99.90;;;;;;5029530;28;20045;-61
2023/10/31 00:45:08;;;;;;;22.75;7.65;;;8.70;99.90;;;;;;5051451;28;20376;-66
2023/10/31 00:47:36;;;;;;;14.70;6.00;;;8.70;99.90;;;;;;5053365;28;20519;-62
2023/10/31 00:50:03;;;;;;;9.23;6.03;;;8.60;99.90;;;;;;5033165;28;20068;-64
2023/10/31 00:52:30;;;;;;;18.55;8.07;;;8.60;99.90;;;;;;5052939;28;20045;-61
2023/10/31 00:54:57;;;;;;;11.85;6.57;;;8.50;99.90;;;;;;5052761;28;20498;-61
2023/10/31 00:57:24;;;;;;;10.93;6.72;;;8.50;99.90;;;;;;5050554;28;20450;-62
2023/10/31 00:59:51;;;;;;;13.25;5.68;;;8.50;99.90;;;;;;5051856;28;20095;-63
2023/10/31 01:02:18;;;;;;;20.05;6.75;;;8.50;99.90;;;;;;5050183;28;20483;-67
2023/10/31 01:04:45;;;;;;;8.00;6.00;;;8.50;99.90;;;;;;5051830;28;20048;-62
2023/10/31 01:07:12;;;;;;;12.52;5.82;;;8.40;99.90;;;;;;5052533;28;20103;-61
2023/10/31 01:09:39;;;;;;;10.48;5.82;;;8.50;99.90;;;;;;5052306;28;20506;-61
2023/10/31 01:12:06;;;;;;;13.38;6.28;;;8.50;99.90;;;;;;5055644;28;20053;-64
2023/10/31 01:14:33;;;;;;;18.10;6.97;;;8.40;99.90;;;;;;5032946;28;20638;-62
2023/10/31 01:17:00;;;;;;;12.10;6.65;;;8.40;99.90;;;;;;5053737;28;20060;-62
2023/10/31 01:19:27;;;;;;;18.17;7.40;;;8.40;99.90;;;;;;5044901;28;20106;-67
2023/10/31 01:21:54;;;;;;;18.00;7.72;;;8.40;99.90;;;;;;5051557;28;20096;-63
2023/10/31 01:24:23;;;;;;;13.52;7.82;;;8.40;99.90;;;;;;5052391;28;20076;-62
2023/10/31 01:26:50;;;;;;;10.05;6.10;;;8.50;99.90;;;;;;5032482;28;20499;-61
2023/10/31 01:29:17;;;;;;;15.77;6.22;;;8.50;99.90;;;;;;5057184;28;20045;-62
2023/10/31 01:31:44;;;;;;;8.82;5.13;;;8.40;99.90;;;;;;5050799;28;20048;-62
2023/10/31 01:34:25;;;;;;;15.82;7.18;;;8.40;99.90;;;;;;5026984;28;20064;-62
2023/10/31 01:36:52;;;;;;;13.82;5.68;;;8.40;99.90;;;;;;5046965;28;20045;-61
2023/10/31 01:39:19;;;;;;;13.88;6.55;;;8.30;99.90;;;;;;5045877;28;20060;-69
2023/10/31 01:41:46;;;;;;;10.70;5.75;;;8.30;99.90;;;;;;5048542;28;20061;-61
2023/10/31 01:44:13;;;;;;;10.40;5.28;;;8.30;99.90;;;;;;5047333;28;20044;-62
2023/10/31 01:46:40;;;;;;;10.52;6.00;;;8.30;99.90;;;;;;5032684;28;20140;-62
2023/10/31 01:49:07;;;;;;;15.10;5.97;;;8.30;99.90;;;;;;5044762;28;20044;-62
2023/10/31 01:51:34;;;;;;;9.93;5.30;;;8.30;99.90;;;;;;5049762;28;20111;-65
2023/10/31 01:54:01;;;;;;;16.33;6.72;;;8.30;99.90;;;;;;5047688;28;20124;-61
2023/10/31 01:56:28;;;;;;;13.18;5.15;;;8.30;99.90;;;;;;5029729;28;20115;-70
2023/10/31 01:58:55;;;;;;;13.70;5.68;;;8.30;99.90;;;;;;5048658;28;20511;-63
2023/10/31 02:01:22;;;;;;;14.65;6.38;;;8.30;99.90;;;;;;5030776;28;20049;-63
2023/10/31 02:03:49;;;;;;;8.63;5.72;;;8.30;99.90;;;;;;5047908;28;20051;-65
2023/10/31 02:06:16;;;;;;;15.00;6.85;;;8.30;99.90;;;;;;5045679;28;20128;-62
2023/10/31 02:08:43;;;;;;;12.07;5.10;;;8.40;99.90;;;;;;5041380;28;20059;-63
2023/10/31 02:11:10;;;;;;;18.48;6.13;;;8.40;99.90;;;;;;5030975;28;20123;-62
2023/10/31 02:13:39;;;;;;;17.38;7.13;;;8.40;99.90;;;;;;5045074;28;20494;-62
2023/10/31 02:16:06;;;;;;;15.70;6.50;;;8.40;99.90;;;;;;5028701;28;20095;-61
2023/10/31 02:18:34;;;;;;;12.30;5.65;;;8.40;99.90;;;;;;5043587;28;20487;-63
2023/10/31 02:21:00;;;;;;;13.63;7.53;;;8.40;99.90;;;;;;5047108;28;20383;-62
2023/10/31 02:23:27;;;;;;;12.80;7.05;;;8.40;99.90;;;;;;5048084;28;20055;-63
2023/10/31 02:25:55;;;;;;;16.15;6.68;;;8.40;99.90;;;;;;5047376;28;20080;-62
2023/10/31 02:28:22;;;;;;;16.02;7.32;;;8.50;99.90;;;;;;5032061;28;20053;-66
2023/10/31 02:30:49;;;;;;;15.77;7.68;;;8.50;99.90;;;;;;5047321;28;20498;-61
2023/10/31 02:33:17;;;;;;;15.02;6.93;;;8.50;99.90;;;;;;5041251;28;20045;-62
2023/10/31 02:35:45;;;;;;;15.98;7.35;;;8.50;99.90;;;;;;5050991;28;20037;-62
2023/10/31 02:38:12;;;;;;;11.23;7.18;;;8.50;99.90;;;;;;5034518;28;20491;-62
2023/10/31 02:40:39;;;;;;;15.93;9.52;;;8.50;99.90;;;;;;5037280;28;20053;-61
2023/10/31 02:43:06;;;;;;;15.23;8.02;;;8.50;99.90;;;;;;5048926;28;20041;-64
2023/10/31 02:45:33;;;;;;;15.35;8.52;;;8.50;99.90;;;;;;5049894;28;20040;-62
2023/10/31 02:48:00;;;;;;;15.38;9.20;;;8.60;99.90;;;;;;5054301;28;20095;-68
2023/10/31 02:50:26;;;;;;;19.75;9.68;;;8.60;99.90;;;;;;5051688;28;20091;-62
2023/10/31 02:52:53;;;;;;;16.25;7.75;;;8.60;99.90;;;;;;5057137;28;20132;-61
2023/10/31 02:55:21;;;;;;;14.27;8.55;;;8.60;99.90;;;;;;5052068;28;20052;-67
2023/10/31 02:57:47;;;;;;;18.90;8.88;;;8.60;99.90;;;;;;5050276;28;20053;-62
2023/10/31 03:00:15;;;;;;;16.33;9.15;;;8.60;99.90;;;;;;5047146;28;20087;-63
2023/10/31 03:02:42;;;;;;;19.33;10.25;;;8.60;99.90;;;;;;5052559;28;20107;-62
2023/10/31 03:05:09;;;;;;;20.48;10.02;;;8.60;99.90;;;;;;5053966;28;20049;-62
2023/10/31 03:07:36;;;;;;;17.52;10.35;;;8.50;99.90;;;;;;5055042;28;20045;-63
2023/10/31 03:10:03;;;;;;;23.83;10.07;;;8.60;99.90;;;;;;5054089;28;20072;-62
2023/10/31 03:12:30;;;;;;;15.40;10.10;;;8.60;99.90;;;;;;5045937;28;20045;-63
2023/10/31 03:14:57;;;;;;;19.83;9.88;;;8.60;99.90;;;;;;5052910;28;20033;-63
2023/10/31 03:17:25;;;;;;;16.42;9.27;;;8.60;99.90;;;;;;5037688;28;20052;-63
2023/10/31 03:19:52;;;;;;;15.55;9.25;;;8.60;99.90;;;;;;5054162;28;20041;-61
2023/10/31 03:22:19;;;;;;;21.58;10.95;;;8.60;99.90;;;;;;5047943;28;20037;-65
2023/10/31 03:24:46;;;;;;;15.70;10.00;;;8.60;99.90;;;;;;5054336;28;20570;-64
2023/10/31 03:27:13;;;;;;;18.38;9.68;;;8.60;99.90;;;;;;5048993;28;20482;-63
2023/10/31 03:29:40;;;;;;;16.35;10.57;;;8.60;99.90;;;;;;5048891;28;20076;-65
2023/10/31 03:32:07;;;;;;;24.85;10.52;;;8.60;99.90;;;;;;5032654;28;20057;-64
2023/10/31 03:34:33;;;;;;;19.40;10.88;;;8.70;99.90;;;;;;5042944;28;20442;-65
2023/10/31 03:37:00;;;;;;;14.00;9.65;;;8.70;99.90;;;;;;5048350;28;20075;-64
2023/10/31 03:39:27;;;;;;;19.83;12.00;;;8.70;99.90;;;;;;5046935;28;20112;-64
2023/10/31 03:41:55;;;;;;;17.88;10.85;;;8.70;99.90;;;;;;5050805;28;20049;-61
2023/10/31 03:44:24;;;;;;;18.77;12.10;;;8.70;99.90;;;;;;5057096;28;20043;-63
2023/10/31 03:46:51;;;;;;;18.70;12.52;;;8.70;99.90;;;;;;5048406;28;20475;-63
2023/10/31 03:49:18;;;;;;;20.70;10.85;;;8.70;99.90;;;;;;5048532;28;20049;-62
2023/10/31 03:51:45;;;;;;;20.05;11.70;;;8.70;99.90;;;;;;5030976;28;20148;-62
2023/10/31 03:54:12;;;;;;;22.25;11.05;;;8.70;99.90;;;;;;5054168;28;20071;-61
2023/10/31 03:56:43;;;;;;;21.35;11.98;;;8.80;99.90;;;;;;5047000;28;20410;-62
2023/10/31 03:59:10;;;;;;;23.40;12.25;;;8.80;99.90;;;;;;5054214;28;20083;-61
2023/10/31 04:01:37;;;;;;;17.90;12.73;;;8.80;99.90;;;;;;5031750;28;20041;-62
2023/10/31 04:04:05;;;;;;;19.67;11.95;;;8.80;99.90;;;;;;5053220;28;20163;-61
2023/10/31 04:06:32;;;;;;;20.27;14.85;;;8.80;99.90;;;;;;5051620;28;20378;-63
2023/10/31 04:08:59;;;;;;;19.38;12.68;;;8.90;99.90;;;;;;5049216;28;20041;-63
2023/10/31 04:11:26;;;;;;;18.52;12.73;;;8.90;99.90;;;;;;5047594;28;20037;-62
2023/10/31 04:13:52;;;;;;;25.83;15.43;;;9.00;99.90;;;;;;5055661;28;20052;-62
2023/10/31 04:16:19;;;;;;;24.75;15.48;;;9.10;99.90;;;;;;5046951;28;20106;-63
2023/10/31 04:18:46;;;;;;;22.85;14.93;;;9.10;99.90;;;;;;5047756;28;20045;-64
2023/10/31 04:21:13;;;;;;;20.50;14.35;;;9.10;99.90;;;;;;5051322;28;20045;-63
2023/10/31 04:23:40;;;;;;;26.50;16.25;;;9.10;99.90;;;;;;5044540;28;20175;-65
2023/10/31 04:26:07;;;;;;;22.52;15.48;;;9.10;99.90;;;;;;5051336;28;20099;-63
2023/10/31 04:28:34;;;;;;;24.90;15.77;;;9.10;99.90;;;;;;5049501;28;20048;-62
2023/10/31 04:31:01;;;;;;;25.42;15.77;;;9.10;99.90;;;;;;5059911;28;20102;-62
2023/10/31 04:33:27;;;;;;;20.05;14.40;;;9.10;99.90;;;;;;5054228;28;20041;-63
2023/10/31 04:35:54;;;;;;;25.77;16.08;;;9.10;99.90;;;;;;5053650;28;20052;-62
2023/10/31 04:38:21;;;;;;;27.60;17.73;;;9.10;99.90;;;;;;5058222;28;20502;-64
2023/10/31 04:40:48;;;;;;;24.10;16.00;;;9.10;99.90;;;;;;5050706;28;20053;-64
2023/10/31 04:43:15;;;;;;;19.92;14.27;;;9.10;99.90;;;;;;5057227;28;20044;-70
2023/10/31 04:45:42;;;;;;;24.00;16.13;;;9.00;99.90;;;;;;5053345;28;20116;-61
2023/10/31 04:48:09;;;;;;;20.17;13.63;;;9.10;99.90;;;;;;5051714;28;20076;-63
2023/10/31 04:50:36;;;;;;;25.67;14.77;;;9.10;99.90;;;;;;5060761;28;20048;-63
2023/10/31 04:53:03;;;;;;;21.13;12.98;;;9.10;99.90;;;;;;5049004;28;20041;-62
2023/10/31 04:55:30;;;;;;;21.90;11.75;;;9.10;99.90;;;;;;5047660;28;20045;-65
2023/10/31 04:57:56;;;;;;;16.35;12.45;;;9.10;99.90;;;;;;5049016;28;20139;-65
2023/10/31 05:00:23;;;;;;;24.27;12.48;;;9.00;99.90;;;;;;5051307;28;20664;-62
2023/10/31 05:02:50;;;;;;;17.23;13.52;;;9.00;99.90;;;;;;5050860;28;20453;-61
2023/10/31 05:05:17;;;;;;;19.55;11.57;;;9.00;99.90;;;;;;5056407;28;20099;-66
2023/10/31 05:07:44;;;;;;;13.13;11.18;;;9.00;99.90;;;;;;5052656;28;20060;-62
2023/10/31 05:10:11;;;;;;;19.40;11.77;;;9.00;99.90;;;;;;5053595;28;20113;-64
2023/10/31 05:12:41;;;;;;;13.57;11.95;;;8.90;99.90;;;;;;5054447;28;20422;-68
2023/10/31 05:15:08;;;;;;;16.85;11.48;;;8.90;99.90;;;;;;5056803;28;20051;-64
2023/10/31 05:17:35;;;;;;;12.35;10.05;;;8.90;99.90;;;;;;5050754;28;22061;-62
2023/10/31 05:20:03;;;;;;;12.68;9.85;;;8.90;99.90;;;;;;5048780;28;20127;-64
2023/10/31 05:22:30;;;;;;;12.10;9.05;;;8.90;99.90;;;;;;5036684;28;20041;-65
2023/10/31 05:24:57;;;;;;;11.50;9.27;;;8.80;99.90;;;;;;5053768;28;20041;-63
2023/10/31 05:27:24;;;;;;;12.18;9.57;;;8.80;99.90;;;;;;5053779;28;20479;-63
2023/10/31 05:29:51;;;;;;;11.20;9.23;;;8.80;99.90;;;;;;5057244;28;20060;-62
2023/10/31 05:32:18;;;;;;;12.93;9.55;;;8.80;99.90;;;;;;5052601;28;20048;-63
2023/10/31 05:34:45;;;;;;;16.52;9.45;;;8.80;99.90;;;;;;5058951;28;20474;-61
2023/10/31 05:37:12;;;;;;;13.35;9.15;;;8.80;99.90;;;;;;5051280;28;20120;-64
2023/10/31 05:39:38;;;;;;;12.02;9.15;;;8.80;99.90;;;;;;5050230;28;20052;-62
2023/10/31 05:42:05;;;;;;;14.48;10.02;;;8.80;99.90;;;;;;5035376;28;20442;-66
2023/10/31 05:44:32;;;;;;;12.23;10.00;;;8.80;99.90;;;;;;5051403;28;20045;-63
2023/10/31 05:46:59;;;;;;;19.02;9.60;;;8.80;99.90;;;;;;5051699;28;20552;-63
2023/10/31 05:49:26;;;;;;;12.48;10.93;;;8.80;99.90;;;;;;5049344;28;20411;-61
2023/10/31 05:51:53;;;;;;;15.45;10.15;;;8.80;99.90;;;;;;5052487;28;20102;-64
2023/10/31 05:54:20;;;;;;;13.65;10.82;;;8.80;99.90;;;;;;5058316;28;20482;-67
2023/10/31 05:56:47;;;;;;;17.65;10.75;;;8.70;99.90;;;;;;5052237;28;20051;-66
2023/10/31 05:59:14;;;;;;;13.05;10.40;;;8.70;99.90;;;;;;5052845;28;20106;-62
2023/10/31 06:01:41;;;;;;;14.68;10.30;;;8.70;99.90;;;;;;5057523;28;20036;-62
2023/10/31 06:04:08;;;;;;;16.10;11.27;;;8.70;99.90;;;;;;5051702;28;20049;-70
2023/10/31 06:06:39;;;;;;;23.50;12.73;;;8.80;99.90;;;;;;5055088;28;20056;-63
2023/10/31 06:09:05;;;;;;;15.27;11.43;;;8.80;99.90;;;;;;5051115;28;20818;-62
2023/10/31 06:11:32;;;;;;;18.80;12.98;;;8.80;99.90;;;;;;5054753;28;20110;-61
2023/10/31 06:13:59;;;;;;;15.02;11.25;;;8.80;99.90;;;;;;5051695;28;20049;-62
2023/10/31 06:16:27;;;;;;;15.02;11.65;;;8.80;99.90;;;;;;5052980;28;20095;-62
2023/10/31 06:18:53;;;;;;;15.15;11.63;;;8.90;99.90;;;;;;5048284;28;20049;-61
2023/10/31 06:21:20;;;;;;;18.00;12.18;;;8.90;99.90;;;;;;5054362;28;20076;-64
2023/10/31 06:23:47;;;;;;;17.48;13.50;;;9.00;99.90;;;;;;5051802;28;20429;-61
2023/10/31 06:26:14;;;;;;;15.88;12.65;;;8.90;99.90;;;;;;5050530;28;20049;-63
2023/10/31 06:28:42;;;;;;;15.93;11.07;;;8.90;99.90;;;;;;5053761;28;20041;-63
2023/10/31 06:31:23;;;;;;;17.42;12.40;;;8.90;99.90;;;;;;5049622;28;20048;-65
2023/10/31 06:33:50;;;;;;;19.38;12.57;;;9.00;99.90;;;;;;5049470;28;20068;-61
2023/10/31 06:36:17;;;;;;;15.35;11.73;;;9.00;99.90;;;;;;5050447;28;20049;-62
2023/10/31 06:38:44;;;;;;;19.98;12.35;;;9.10;99.90;;;;;;5052270;28;20122;-63
2023/10/31 06:41:11;;;;;;;22.63;13.98;;;9.10;99.90;;;;;;5057014;28;20519;-67
2023/10/31 06:43:38;;;;;;;22.50;14.25;;;9.10;99.90;;;;;;5049556;28;20491;-61
2023/10/31 06:46:06;;;;;;;22.25;16.10;;;9.10;99.90;;;;;;5049898;28;20446;-62
2023/10/31 06:48:34;;;;;;;23.98;16.65;;;9.20;99.90;;;;;;5048363;28;20056;-61
2023/10/31 06:51:00;;;;;;;23.27;16.33;;;9.20;99.90;;;;;;5049007;28;20049;-62
2023/10/31 06:53:27;;;;;;;20.92;15.88;;;9.30;99.90;;;;;;5054381;28;20056;-62
2023/10/31 06:55:54;;;;;;;26.98;18.65;;;9.30;99.90;;;;;;5049912;28;20045;-62
2023/10/31 06:58:21;;;;;;;27.38;19.05;;;9.30;99.90;;;;;;5050315;28;20048;-67
2023/10/31 07:00:48;;;;;;;24.20;17.65;;;9.30;99.90;;;;;;5059890;28;20048;-61
2023/10/31 07:03:16;;;;;;;24.63;17.35;;;9.30;99.90;;;;;;5048580;28;20048;-65
2023/10/31 07:05:43;;;;;;;24.73;19.15;;;9.30;99.90;;;;;;5052428;28;20136;-61
2023/10/31 07:08:10;;;;;;;27.02;19.13;;;9.40;99.90;;;;;;5055330;28;20064;-62
2023/10/31 07:10:37;;;;;;;27.70;17.67;;;9.40;99.90;;;;;;5046565;28;20095;-62
2023/10/31 07:13:04;;;;;;;26.42;17.77;;;9.40;99.90;;;;;;5047420;28;20118;-61
2023/10/31 07:15:31;;;;;;;26.45;19.33;;;9.40;99.90;;;;;;5052552;28;20074;-63
2023/10/31 07:17:58;;;;;;;31.35;19.98;;;9.40;99.90;;;;;;5048040;28;20096;-62
2023/10/31 07:20:25;;;;;;;25.05;17.90;;;9.50;99.90;;;;;;5053078;28;20037;-62
2023/10/31 07:22:52;;;;;;;25.95;19.98;;;9.50;99.90;;;;;;5048502;28;20534;-63
2023/10/31 07:25:19;;;;;;;36.35;19.77;;;9.50;99.90;;;;;;5053764;28;20048;-62
2023/10/31 07:27:46;;;;;;;32.28;20.08;;;9.50;99.90;;;;;;5053273;28;20159;-62
2023/10/31 07:30:13;;;;;;;27.75;20.13;;;9.50;99.90;;;;;;5050498;28;20056;-64
2023/10/31 07:32:40;;;;;;;29.63;20.10;;;9.60;99.90;;;;;;5050689;28;20052;-62
2023/10/31 07:35:07;;;;;;;30.35;19.52;;;9.70;99.90;;;;;;5051285;28;20140;-62
2023/10/31 07:37:34;;;;;;;23.48;17.05;;;9.60;99.90;;;;;;5050382;28;20118;-62
2023/10/31 07:40:04;;;;;;;32.90;20.73;;;9.70;99.90;;;;;;5048772;28;20061;-68
2023/10/31 07:42:31;;;;;;;27.65;19.48;;;9.70;99.90;;;;;;5049038;28;20047;-62
2023/10/31 07:44:58;;;;;;;28.20;19.67;;;9.80;99.90;;;;;;5048120;28;20045;-63
2023/10/31 07:47:24;;;;;;;28.10;18.63;;;9.80;99.90;;;;;;5056002;28;20041;-62
2023/10/31 07:49:53;;;;;;;29.52;21.55;;;9.80;99.90;;;;;;5051459;28;20043;-62
2023/10/31 07:52:20;;;;;;;29.65;19.90;;;9.80;99.90;;;;;;5056604;28;20044;-63
2023/10/31 07:54:47;;;;;;;29.85;21.27;;;9.90;99.90;;;;;;5049061;28;20044;-62
2023/10/31 07:57:14;;;;;;;31.63;21.02;;;10.00;99.90;;;;;;5054985;28;20051;-61
2023/10/31 07:59:41;;;;;;;28.90;18.23;;;10.00;99.90;;;;;;5054017;28;20068;-62
2023/10/31 08:02:08;;;;;;;25.23;17.70;;;10.00;99.90;;;;;;5052644;28;20083;-62
2023/10/31 08:04:35;;;;;;;26.25;19.35;;;10.00;99.90;;;;;;5058019;28;20040;-61
2023/10/31 08:07:02;;;;;;;27.15;18.05;;;10.10;99.90;;;;;;5058213;28;20044;-62
2023/10/31 08:09:29;;;;;;;27.73;21.08;;;10.10;99.90;;;;;;5050595;28;20517;-62
2023/10/31 08:11:56;;;;;;;24.95;17.88;;;10.10;99.90;;;;;;5056686;28;20075;-62
2023/10/31 08:14:23;;;;;;;24.10;17.42;;;10.20;99.90;;;;;;5051205;28;20072;-66
2023/10/31 08:16:52;;;;;;;24.73;17.67;;;10.20;99.90;;;;;;5055831;28;20111;-63
2023/10/31 08:19:19;;;;;;;22.23;15.25;;;10.30;99.90;;;;;;5039760;28;20454;-63
2023/10/31 08:21:46;;;;;;;18.55;15.02;;;10.30;99.90;;;;;;5052149;28;20040;-64
2023/10/31 08:24:13;;;;;;;17.58;15.27;;;10.30;99.90;;;;;;5054081;28;20036;-62
2023/10/31 08:26:40;;;;;;;19.35;15.45;;;10.30;99.90;;;;;;5057426;28;20109;-63
2023/10/31 08:29:07;;;;;;;17.80;13.88;;;10.30;99.90;;;;;;5055798;28;20040;-61
2023/10/31 08:31:34;;;;;;;19.90;14.73;;;10.40;99.90;;;;;;5057571;28;20111;-61
2023/10/31 08:34:00;;;;;;;20.67;14.15;;;10.40;99.90;;;;;;5052890;28;20110;-65
2023/10/31 08:36:29;;;;;;;14.57;12.13;;;10.40;99.90;;;;;;5049047;28;20087;-62
2023/10/31 08:38:56;;;;;;;14.98;11.05;;;10.40;99.90;;;;;;5049464;28;20076;-61
2023/10/31 08:41:23;;;;;;;14.50;11.88;;;10.40;99.90;;;;;;5055014;28;20045;-63
2023/10/31 08:43:50;;;;;;;17.80;12.68;;;10.40;99.90;;;;;;5059778;28;20041;-63
2023/10/31 08:46:17;;;;;;;15.00;12.50;;;10.40;99.90;;;;;;5056309;28;20045;-62
2023/10/31 08:48:44;;;;;;;17.10;11.93;;;10.40;99.90;;;;;;5053204;28;20046;-62
2023/10/31 08:51:11;;;;;;;14.90;10.55;;;10.40;99.90;;;;;;5060770;28;20047;-64
2023/10/31 08:53:38;;;;;;;13.63;10.68;;;10.40;99.90;;;;;;5057076;28;20124;-63
2023/10/31 08:56:05;;;;;;;12.02;10.32;;;10.40;99.90;;;;;;5052246;28;20126;-62
2023/10/31 08:58:31;;;;;;;14.35;8.82;;;10.40;99.90;;;;;;5052612;28;20386;-66
2023/10/31 09:00:58;;;;;;;10.70;9.52;;;10.40;99.90;;;;;;5054288;28;20041;-63
2023/10/31 09:03:25;;;;;;;10.25;8.27;;;10.40;99.90;;;;;;5052412;28;20131;-61
2023/10/31 09:05:53;;;;;;;13.07;8.07;;;10.40;99.90;;;;;;5052542;28;20037;-63
2023/10/31 09:08:19;;;;;;;13.32;9.23;;;10.40;99.90;;;;;;5052126;28;20092;-67
2023/10/31 09:10:47;;;;;;;8.15;7.28;;;10.40;99.90;;;;;;5048806;28;20399;-61
2023/10/31 09:13:14;;;;;;;8.77;7.88;;;10.40;99.90;;;;;;5055669;28;20052;-63
2023/10/31 09:15:41;;;;;;;9.98;5.72;;;10.40;99.90;;;;;;5054359;28;20049;-61
2023/10/31 09:18:08;;;;;;;6.10;5.35;;;10.40;99.90;;;;;;5050637;28;20053;-62
2023/10/31 09:20:35;;;;;;;7.30;6.63;;;10.40;99.90;;;;;;5049327;28;20111;-63
2023/10/31 09:23:02;;;;;;;9.90;5.75;;;10.40;99.90;;;;;;5052689;28;20040;-64
2023/10/31 09:25:30;;;;;;;5.95;5.35;;;10.40;99.90;;;;;;5050080;28;20079;-64
2023/10/31 09:27:58;;;;;;;7.78;6.05;;;10.40;99.90;;;;;;5050614;28;20071;-61
2023/10/31 09:30:26;;;;;;;7.97;5.63;;;10.40;99.90;;;;;;5057778;28;20091;-62
2023/10/31 09:32:53;;;;;;;6.05;4.78;;;10.40;99.90;;;;;;5049471;28;20033;-64
2023/10/31 09:35:20;;;;;;;6.05;5.40;;;10.40;99.90;;;;;;5052818;28;20143;-62
2023/10/31 09:37:48;;;;;;;4.85;4.35;;;10.40;99.90;;;;;;5054757;28;20099;-61
2023/10/31 09:40:16;;;;;;;8.93;5.45;;;10.40;99.90;;;;;;5054404;28;20051;-63
2023/10/31 09:42:45;;;;;;;8.55;5.57;;;10.40;99.90;;;;;;5053795;28;20660;-61
2023/10/31 09:45:13;;;;;;;7.97;4.95;;;10.40;99.90;;;;;;5052247;28;20380;-62
2023/10/31 09:47:41;;;;;;;7.78;3.88;;;10.40;99.90;;;;;;5058475;28;20465;-61
2023/10/31 09:50:09;;;;;;;6.30;4.72;;;10.40;99.90;;;;;;5052188;28;20067;-67
2023/10/31 09:52:36;;;;;;;5.78;4.95;;;10.40;99.90;;;;;;5052578;28;20048;-61
2023/10/31 09:55:05;;;;;;;5.93;4.32;;;10.40;99.90;;;;;;5054793;28;20111;-62
2023/10/31 09:57:32;;;;;;;6.53;4.35;;;10.40;99.90;;;;;;5052116;28;20037;-66
2023/10/31 09:59:59;;;;;;;5.60;4.53;;;10.40;99.90;;;;;;5052301;28;20045;-62
2023/10/31 10:02:26;;;;;;;8.63;4.43;;;10.40;99.90;;;;;;5050889;28;20040;-62
2023/10/31 10:04:53;;;;;;;4.70;3.90;;;10.30;99.90;;;;;;5050492;28;20107;-63
2023/10/31 10:07:20;;;;;;;6.90;4.95;;;10.30;99.90;;;;;;5060902;28;20045;-65
2023/10/31 10:09:47;;;;;;;4.47;3.05;;;10.30;99.90;;;;;;5049393;28;20052;-63
2023/10/31 10:12:16;;;;;;;5.93;3.63;;;10.30;99.90;;;;;;5050338;28;20124;-69
2023/10/31 10:14:46;;;;;;;4.85;3.35;;;10.30;99.90;;;;;;5047086;28;20032;-61
2023/10/31 10:17:23;;;;;;;3.53;2.40;;;10.30;99.90;;;;;;5054086;28;20105;-62
2023/10/31 10:20:11;;;;;;;6.38;3.25;;;10.30;99.90;;;;;;5047642;28;20499;-61
2023/10/31 10:22:42;;;;;;;5.43;2.70;;;10.30;99.90;;;;;;5051691;28;20045;-61
2023/10/31 10:25:14;;;;;;;3.63;2.53;;;10.20;99.90;;;;;;5049125;28;20045;-63
2023/10/31 10:27:41;;;;;;;8.73;2.03;;;10.30;99.90;;;;;;5059907;28;20083;-61
2023/10/31 10:30:09;;;;;;;4.57;2.20;;;10.20;99.90;;;;;;5056519;28;20072;-62
2023/10/31 10:32:36;;;;;;;6.18;2.30;;;10.20;99.90;;;;;;5057446;28;20458;-62
2023/10/31 10:35:04;;;;;;;4.68;2.10;;;10.20;99.90;;;;;;5056982;28;20120;-62
2023/10/31 10:37:31;;;;;;;4.97;1.45;;;10.10;99.90;;;;;;5050191;28;20055;-67
2023/10/31 10:39:59;;;;;;;2.72;2.22;;;10.10;99.90;;;;;;5059263;28;20047;-61
2023/10/31 10:42:36;;;;;;;4.50;1.98;;;10.10;99.90;;;;;;5050547;28;20045;-63
2023/10/31 10:45:04;;;;;;;3.50;3.20;;;10.10;99.90;;;;;;5049612;28;20045;-63
2023/10/31 10:47:32;;;;;;;4.78;1.95;;;10.10;99.90;;;;;;5050222;28;20052;-64
2023/10/31 10:50:01;;;;;;;4.22;2.08;;;10.10;99.90;;;;;;5052353;28;20098;-61
2023/10/31 10:52:46;;;;;;;4.05;2.15;;;10.10;99.90;;;;;;5048241;28;20763;-61
2023/10/31 10:55:22;;;;;;;4.60;2.10;;;10.10;99.90;;;;;;5051533;28;20120;-64
2023/10/31 10:58:01;;;;;;;4.07;2.28;;;10.10;99.90;;;;;;5048360;28;20052;-61
2023/10/31 11:00:28;;;;;;;5.85;2.20;;;10.00;99.90;;;;;;5051744;28;20045;-61
2023/10/31 11:02:56;;;;;;;4.45;2.72;;;10.00;99.90;;;;;;5051521;28;20099;-61
2023/10/31 11:05:24;;;;;;;4.57;1.60;;;10.00;99.90;;;;;;5061936;28;20437;-62
2023/10/31 11:07:52;;;;;;;6.80;2.17;;;10.00;99.90;;;;;;5053350;28;20048;-62
2023/10/31 11:10:19;;;;;;;2.58;2.05;;;10.00;99.90;;;;;;5050253;28;20111;-61
2023/10/31 11:12:46;;;;;;;5.18;2.05;;;10.00;99.90;;;;;;5048922;28;20037;-65
2023/10/31 11:15:16;;;;;;;3.15;2.15;;;10.00;99.90;;;;;;5050644;28;20045;-66
2023/10/31 11:17:45;;;;;;;5.13;2.08;;;10.00;99.90;;;;;;5051692;28;20049;-63
2023/10/31 11:20:14;;;;;;;8.02;2.38;;;10.00;99.90;;;;;;5052594;28;20086;-63
2023/10/31 11:22:44;;;;;;;5.10;2.47;;;9.90;99.90;;;;;;5051458;28;20067;-65
2023/10/31 11:25:20;;;;;;;6.10;4.17;;;9.90;99.90;;;;;;5051212;28;20551;-61
2023/10/31 11:28:14;;;;;;;7.65;4.43;;;9.90;99.90;;;;;;5052707;28;20282;-65
2023/10/31 11:30:42;;;;;;;6.63;4.07;;;9.90;99.90;;;;;;5050873;28;20041;-61
2023/10/31 11:33:14;;;;;;;6.85;3.42;;;9.80;99.90;;;;;;5045639;28;20443;-63
2023/10/31 11:35:44;;;;;;;6.07;4.15;;;9.80;99.90;;;;;;5031123;28;20057;-62
2023/10/31 11:38:12;;;;;;;3.50;2.85;;;9.70;99.90;;;;;;5029719;28;20049;-62
2023/10/31 11:41:00;;;;;;;5.30;2.72;;;9.70;99.90;;;;;;5026461;28;20483;-64
2023/10/31 11:43:51;;;;;;;8.45;2.55;;;9.70;99.90;;;;;;5028452;28;20041;-61
2023/10/31 11:46:20;;;;;;;4.05;2.22;;;9.70;99.90;;;;;;5021142;28;20048;-63
2023/10/31 11:48:51;;;;;;;5.60;2.25;;;9.70;99.90;;;;;;5030200;28;20051;-62
2023/10/31 11:51:18;;;;;;;;;;;9.70;99.90;;;;;;5027682;28;20053;-62
2023/10/31 11:53:45;;;;;;;2.47;1.80;;;9.70;99.90;;;;;;5028336;28;19932;-61
2023/10/31 11:56:19;;;;;;;5.10;1.95;;;9.60;99.90;;;;;;5028444;28;20541;-64
2023/10/31 11:58:55;;;;;;;4.70;2.22;;;9.60;99.90;;;;;;5028423;28;20103;-64
2023/10/31 12:01:22;;;;;;;2.10;1.58;;;9.60;99.90;;;;;;5028080;28;20159;-64
2023/10/31 12:03:50;;;;;;;5.40;1.70;;;9.60;99.90;;;;;;5026483;28;20037;-62
2023/10/31 12:06:18;;;;;;;5.35;2.25;;;9.60;99.90;;;;;;5027643;28;20605;-62
2023/10/31 12:08:47;;;;;;;3.72;1.45;;;9.60;99.90;;;;;;5030367;28;20123;-61
2023/10/31 12:11:16;;;;;;;3.95;1.50;;;9.60;99.90;;;;;;5019877;28;20048;-63
2023/10/31 12:13:52;;;;;;;2.15;1.08;;;9.60;99.90;;;;;;5028581;28;20041;-64
2023/10/31 12:16:19;;;;;;;3.20;1.75;;;9.60;99.90;;;;;;5030898;28;20045;-65
2023/10/31 12:18:59;;;;;;;4.22;1.70;;;9.60;99.90;;;;;;5025134;28;20045;-64
2023/10/31 12:21:36;;;;;;;3.05;1.80;;;9.60;99.90;;;;;;5028640;28;20058;-60
2023/10/31 12:24:09;;;;;;;6.60;1.65;;;9.60;99.90;;;;;;5025788;28;20091;-62
2023/10/31 12:26:36;;;;;;;4.75;1.65;;;9.60;99.90;;;;;;5024059;28;20127;-63
2023/10/31 12:29:14;;;;;;;4.38;1.40;;;9.60;99.90;;;;;;5026451;28;20137;-64
2023/10/31 12:31:47;;;;;;;2.85;1.90;;;9.60;99.90;;;;;;5028319;28;20057;-65
2023/10/31 12:34:15;;;;;;;0.80;0.80;;;9.60;99.90;;;;;;5038973;28;20474;-65
2023/10/31 12:36:44;;;;;;;3.42;1.35;;;9.50;99.90;;;;;;5051783;28;20079;-61
2023/10/31 12:39:12;;;;;;;6.32;1.05;;;9.60;99.90;;;;;;5043838;28;20045;-62
2023/10/31 12:41:41;;;;;;;1.02;0.77;;;9.50;99.90;;;;;;5045579;28;20120;-63
2023/10/31 12:44:10;;;;;;;5.22;1.23;;;9.50;99.90;;;;;;5034994;28;20454;-63
2023/10/31 12:46:41;;;;;;;5.80;1.10;;;9.50;99.90;;;;;;5051072;28;20075;-62